Time;durP1;ratioP1;P1;durP2;ratioP2;P2;SDS_P1;SDS_P2;PMS_P1;PMS_P2;Temp;Humidity;BMP_temperature;BMP_pressure;BME280_temperature;BME280_humidity;BME280_pressure;Samples;Min_cycle;Max_cycle;Signal;HPM_P1;HPM_P2
2023/09/23 00:01:45;;;;;;;5.03;3.60;;;;;;;22.96;nan;98291.00;5046970;28;20056;-63
2023/09/23 00:04:16;;;;;;;7.07;3.80;;;;;;;22.92;nan;98289.16;5038089;28;20520;-63
2023/09/23 00:06:49;;;;;;;5.95;3.88;;;;;;;22.83;nan;98270.84;5029059;28;20055;-63
2023/09/23 00:09:18;;;;;;;7.15;4.47;;;;;;;22.72;nan;98253.09;5043263;28;20404;-63
2023/09/23 00:11:47;;;;;;;4.38;3.80;;;;;;;22.90;nan;98257.03;5046001;28;20149;-63
2023/09/23 00:14:17;;;;;;;6.47;3.80;;;;;;;22.80;nan;98257.09;5022916;28;20046;-64
2023/09/23 00:16:47;;;;;;;4.80;3.92;;;;;;;22.89;nan;98252.69;5026859;28;20056;-63
2023/09/23 00:19:16;;;;;;;7.57;3.80;;;;;;;23.10;nan;98243.31;5025697;28;20208;-63
2023/09/23 00:21:45;;;;;;;6.20;4.30;;;;;;;23.08;nan;98236.59;5026380;28;20521;-63
2023/09/23 00:24:17;;;;;;;4.90;4.40;;;;;;;22.99;nan;98252.63;5024351;28;20414;-62
2023/09/23 00:26:48;;;;;;;4.70;4.20;;;;;;;23.14;nan;98243.59;5019485;28;20606;-62
2023/09/23 00:29:17;;;;;;;5.85;4.60;;;;;;;23.16;nan;98250.28;5025132;28;20056;-62
2023/09/23 00:31:47;;;;;;;7.28;3.88;;;;;;;22.98;nan;98245.59;5024342;28;20099;-63
2023/09/23 00:34:16;;;;;;;4.05;3.60;;;;;;;22.99;nan;98243.72;5008095;28;20045;-63
2023/09/23 00:36:46;;;;;;;4.32;3.80;;;;;;;23.07;nan;98245.78;5008985;28;20072;-63
2023/09/23 00:39:15;;;;;;;4.68;3.67;;;;;;;22.94;nan;98246.44;5025322;28;20604;-63
2023/09/23 00:42:01;;;;;;;4.63;4.07;;;;;;;22.86;nan;98264.06;5025657;28;20045;-62
2023/09/23 00:44:30;;;;;;;4.75;4.30;;;;;;;22.88;nan;98271.91;5024186;28;20045;-63
2023/09/23 00:47:00;;;;;;;4.82;3.90;;;;;;;23.09;nan;98274.16;5024780;28;20057;-63
2023/09/23 00:49:32;;;;;;;5.35;4.28;;;;;;;23.26;nan;98273.72;5024509;28;20049;-63
2023/09/23 00:52:04;;;;;;;5.20;4.13;;;;;;;23.26;nan;98269.13;5024045;28;20045;-63
2023/09/23 00:54:40;;;;;;;4.18;3.78;;;;;;;23.10;nan;98251.41;5024112;28;20053;-63
2023/09/23 00:57:12;;;;;;;5.05;3.90;;;;;;;23.10;nan;98248.72;5006130;28;20061;-63
2023/09/23 00:59:43;;;;;;;4.25;3.58;;;;;;;23.21;nan;98238.63;5021657;28;20065;-63
2023/09/23 01:02:13;;;;;;;5.00;4.00;;;;;;;23.05;nan;98240.69;5024452;28;20077;-63
2023/09/23 01:04:43;;;;;;;4.97;3.80;;;;;;;22.90;nan;98250.81;5024834;28;20153;-63
2023/09/23 01:07:14;;;;;;;4.53;4.13;;;;;;;23.10;nan;98262.22;5007808;28;20057;-63
2023/09/23 01:09:44;;;;;;;5.22;3.63;;;;;;;23.41;nan;98275.47;5024486;28;20056;-63
2023/09/23 01:12:13;;;;;;;5.72;4.30;;;;;;;23.10;nan;98264.16;5005950;28;20078;-63
2023/09/23 01:14:42;;;;;;;5.50;4.40;;;;;;;23.08;nan;98264.44;5006290;28;20818;-63
2023/09/23 01:17:14;;;;;;;5.80;4.10;;;;;;;23.18;nan;98267.03;5020867;28;20135;-63
2023/09/23 01:19:44;;;;;;;5.63;4.20;;;;;;;23.57;nan;98269.66;5025275;28;20783;-63
2023/09/23 01:22:13;;;;;;;5.60;4.28;;;;;;;23.62;nan;98266.09;5018807;28;20601;-63
2023/09/23 01:24:43;;;;;;;6.57;4.95;;;;;;;23.33;nan;98252.56;5024857;28;20056;-63
2023/09/23 01:27:13;;;;;;;6.07;4.60;;;;;;;23.31;nan;98259.34;5024124;28;20057;-64
2023/09/23 01:29:42;;;;;;;6.53;4.60;;;;;;;23.29;nan;98248.81;5021321;28;20057;-63
2023/09/23 01:32:51;;;;;;;7.40;5.38;;;;;;;23.18;nan;98239.22;5023251;28;20363;-62
2023/09/23 01:35:21;;;;;;;6.28;5.07;;;;;;;23.21;nan;98234.03;5023482;28;20045;-62
2023/09/23 01:37:51;;;;;;;5.40;4.85;;;;;;;23.26;nan;98230.47;5020291;28;20046;-62
2023/09/23 01:40:24;;;;;;;6.38;5.63;;;;;;;23.08;nan;98223.91;5022987;28;20115;-62
2023/09/23 01:42:54;;;;;;;10.15;5.88;;;;;;;23.21;nan;98225.94;5021491;28;20142;-62
2023/09/23 01:45:23;;;;;;;8.60;5.82;;;;;;;22.94;nan;98214.84;5008600;28;20049;-64
2023/09/23 01:47:56;;;;;;;5.72;5.13;;;;;;;22.94;nan;98222.94;5026353;28;20045;-63
2023/09/23 01:50:27;;;;;;;7.18;5.78;;;;;;;23.25;nan;98243.19;5026986;28;20519;-64
2023/09/23 01:52:59;;;;;;;6.43;5.72;;;;;;;23.31;nan;98287.19;5012408;28;20370;-64
2023/09/23 01:55:29;;;;;;;10.77;6.18;;;;;;;23.12;nan;98234.94;5028639;28;20559;-64
2023/09/23 01:57:58;;;;;;;7.60;6.13;;;;;;;22.98;nan;98194.28;5027687;28;20637;-65
2023/09/23 02:00:29;;;;;;;12.50;6.72;;;;;;;22.99;nan;98217.50;5008751;28;20686;-64
2023/09/23 02:02:58;;;;;;;6.88;6.10;;;;;;;22.98;nan;98251.00;5026760;28;20047;-64
2023/09/23 02:05:28;;;;;;;6.85;5.88;;;;;;;23.10;nan;98275.75;5022887;28;20145;-63
2023/09/23 02:08:02;;;;;;;7.22;6.10;;;;;;;23.25;nan;98345.88;5024745;28;20054;-64
2023/09/23 02:10:32;;;;;;;8.93;6.07;;;;;;;23.19;nan;98381.34;5023615;28;20053;-64
2023/09/23 02:13:02;;;;;;;8.60;6.55;;;;;;;23.35;nan;98373.91;5027226;28;20402;-64
2023/09/23 02:15:31;;;;;;;6.10;5.45;;;;;;;23.15;nan;98369.44;5028831;28;20140;-64
2023/09/23 02:18:04;;;;;;;8.70;5.57;;;;;;;23.12;nan;98376.25;5028298;28;20052;-64
2023/09/23 02:20:34;;;;;;;8.68;6.55;;;;;;;23.26;nan;98379.91;5018778;28;20072;-64
2023/09/23 02:23:05;;;;;;;7.35;6.45;;;;;;;23.27;nan;98373.44;5030533;28;20049;-64
2023/09/23 02:25:36;;;;;;;;;;;;;;;23.56;nan;98397.81;5036255;28;20045;-63
2023/09/23 02:28:06;;;;;;;6.65;5.88;;;;;;;23.50;nan;98434.06;5037563;28;19921;-64
2023/09/23 02:30:35;;;;;;;12.30;7.13;;;;;;;23.35;nan;98439.56;5035903;28;20199;-64
2023/09/23 02:33:05;;;;;;;9.40;6.78;;;;;;;23.33;nan;98433.63;5034261;28;20130;-64
2023/09/23 02:35:34;;;;;;;17.23;8.48;;;;;;;23.29;nan;98432.59;5034687;28;20049;-64
2023/09/23 02:38:04;;;;;;;20.77;8.23;;;;;;;23.10;nan;98393.84;5028490;28;20049;-64
2023/09/23 02:40:33;;;;;;;13.90;8.07;;;;;;;23.22;nan;98356.44;5018241;28;20111;-61
2023/09/23 02:43:04;;;;;;;11.75;7.85;;;;;;;23.33;nan;98347.16;5034686;28;20077;-64
2023/09/23 02:45:34;;;;;;;10.07;8.00;;;;;;;23.28;nan;98329.06;5034824;28;20355;-64
2023/09/23 02:48:04;;;;;;;10.85;7.38;;;;;;;23.27;nan;98326.69;5036191;28;20125;-64
2023/09/23 02:50:36;;;;;;;9.20;7.00;;;;;;;23.06;nan;98339.53;5014737;28;20050;-64
2023/09/23 02:53:06;;;;;;;9.35;6.47;;;;;;;23.02;nan;98354.69;5037353;28;20759;-64
2023/09/23 02:55:37;;;;;;;6.70;6.05;;;;;;;23.09;nan;98376.00;5033903;28;20053;-64
2023/09/23 02:58:08;;;;;;;8.45;6.45;;;;;;;23.29;nan;98395.56;5035419;28;20454;-64
2023/09/23 03:00:37;;;;;;;6.57;5.97;;;;;;;23.18;nan;98402.16;5035359;28;20045;-64
2023/09/23 03:03:12;;;;;;;7.95;6.13;;;;;;;23.31;nan;98408.00;5031790;28;20432;-64
2023/09/23 03:05:50;;;;;;;8.15;7.20;;;;;;;23.52;nan;98439.19;5019058;28;20468;-64
2023/09/23 03:08:22;;;;;;;7.82;6.70;;;;;;;23.58;nan;98449.72;5020915;28;20131;-64
2023/09/23 03:10:52;;;;;;;9.25;7.45;;;;;;;23.50;nan;98441.41;5006565;28;20053;-64
2023/09/23 03:13:23;;;;;;;9.00;7.13;;;;;;;23.59;nan;98445.88;5024196;28;20726;-64
2023/09/23 03:15:53;;;;;;;8.05;6.15;;;;;;;23.31;nan;98419.59;5024372;28;20049;-64
2023/09/23 03:18:29;;;;;;;8.30;6.72;;;;;;;23.65;nan;98416.91;5005848;28;20475;-64
2023/09/23 03:21:10;;;;;;;8.70;6.53;;;;;;;23.55;nan;98411.59;5006245;28;20057;-64
2023/09/23 03:23:40;;;;;;;8.10;6.82;;;;;;;23.24;nan;98401.00;5026036;28;20608;-64
2023/09/23 03:26:11;;;;;;;7.78;6.75;;;;;;;23.16;nan;98404.31;5025068;28;20049;-64
2023/09/23 03:28:41;;;;;;;9.13;7.18;;;;;;;23.54;nan;98418.91;5008886;28;20504;-64
2023/09/23 03:31:10;;;;;;;10.43;7.03;;;;;;;23.72;nan;98449.88;5037674;28;20053;-64
2023/09/23 03:33:44;;;;;;;9.18;7.10;;;;;;;23.79;nan;98471.97;5027845;28;20053;-64
2023/09/23 03:36:15;;;;;;;11.75;7.60;;;;;;;23.55;nan;98471.06;5025417;28;20127;-64
2023/09/23 03:38:46;;;;;;;8.27;7.28;;;;;;;23.44;nan;98474.94;5027231;28;20136;-64
2023/09/23 03:41:15;;;;;;;10.77;7.95;;;;;;;23.45;nan;98476.56;5025586;28;20150;-64
2023/09/23 03:43:45;;;;;;;9.50;7.90;;;;;;;23.69;nan;98482.88;5021567;28;20061;-63
2023/09/23 03:46:16;;;;;;;9.85;7.55;;;;;;;23.65;nan;98481.81;5026230;28;20060;-64
2023/09/23 03:48:46;;;;;;;12.23;7.50;;;;;;;23.51;nan;98484.34;5024458;28;20049;-64
2023/09/23 03:51:17;;;;;;;11.85;8.75;;;;;;;23.49;nan;98491.13;5022561;28;20147;-64
2023/09/23 03:53:48;;;;;;;11.73;8.10;;;;;;;23.46;nan;98491.69;5021060;28;20055;-65
2023/09/23 03:56:24;;;;;;;10.63;7.75;;;;;;;23.54;nan;98489.22;5026539;28;20148;-63
2023/09/23 03:58:55;;;;;;;11.45;8.80;;;;;;;23.51;nan;98483.53;5009642;28;20049;-65
2023/09/23 04:01:25;;;;;;;14.85;8.63;;;;;;;23.52;nan;98455.44;5012963;28;20046;-64
2023/09/23 04:03:56;;;;;;;15.48;9.88;;;;;;;23.51;nan;98453.81;5020773;28;20060;-64
2023/09/23 04:06:26;;;;;;;11.68;8.02;;;;;;;23.52;nan;98450.00;5012938;28;20053;-65
2023/09/23 04:08:58;;;;;;;11.95;9.25;;;;;;;23.56;nan;98443.75;5013109;28;20124;-64
2023/09/23 04:11:28;;;;;;;11.98;8.23;;;;;;;23.60;nan;98435.88;5018676;28;20054;-64
2023/09/23 04:13:57;;;;;;;10.60;8.32;;;;;;;23.53;nan;98421.91;5034414;28;20130;-64
2023/09/23 04:16:27;;;;;;;9.98;8.75;;;;;;;23.55;nan;98417.81;5045065;28;20396;-65
2023/09/23 04:18:56;;;;;;;13.75;9.73;;;;;;;23.49;nan;98408.16;5044249;28;20049;-64
2023/09/23 04:21:27;;;;;;;12.80;10.27;;;;;;;23.54;nan;98400.00;5045005;28;20045;-65
2023/09/23 04:24:00;;;;;;;14.10;11.85;;;;;;;23.49;nan;98407.34;5050306;28;20106;-65
2023/09/23 04:26:29;;;;;;;14.82;12.10;;;;;;;23.46;nan;98413.28;5065310;28;20068;-64
2023/09/23 04:28:59;;;;;;;13.73;10.80;;;;;;;23.34;nan;98415.53;5050800;28;20102;-65
2023/09/23 04:31:28;;;;;;;11.45;10.25;;;;;;;23.49;nan;98424.38;5042803;28;20481;-65
2023/09/23 04:33:59;;;;;;;11.45;10.00;;;;;;;23.54;nan;98423.53;5045489;28;20045;-65
2023/09/23 04:36:28;;;;;;;12.63;10.05;;;;;;;23.65;nan;98419.63;5039946;28;20138;-65
2023/09/23 04:38:57;;;;;;;10.93;9.30;;;;;;;23.42;nan;98407.63;5044393;28;20040;-65
2023/09/23 04:41:27;;;;;;;9.32;8.23;;;;;;;23.47;nan;98402.19;5044249;28;20040;-65
2023/09/23 04:43:57;;;;;;;11.52;8.57;;;;;;;23.58;nan;98406.44;5041581;28;20059;-65
2023/09/23 04:46:32;;;;;;;11.50;7.93;;;;;;;23.83;nan;98400.00;5043512;28;20056;-65
2023/09/23 04:49:03;;;;;;;8.20;6.93;;;;;;;24.10;nan;98405.66;5042384;28;20072;-64
2023/09/23 04:51:32;;;;;;;9.98;7.50;;;;;;;23.95;nan;98405.81;5044646;28;20048;-65
2023/09/23 04:54:01;;;;;;;10.82;7.32;;;;;;;23.75;nan;98389.78;5043811;28;20080;-65
2023/09/23 04:56:30;;;;;;;11.20;8.15;;;;;;;23.84;nan;98369.16;5038853;28;20048;-65
2023/09/23 04:59:00;;;;;;;10.18;7.88;;;;;;;24.19;nan;98369.88;5061687;28;20059;-65
2023/09/23 05:01:30;;;;;;;10.82;7.93;;;;;;;24.34;nan;98358.88;5063651;28;20058;-65
2023/09/23 05:03:59;;;;;;;10.25;7.65;;;;;;;24.40;nan;98353.09;5055169;28;20152;-65
2023/09/23 05:06:29;;;;;;;9.35;7.85;;;;;;;24.20;nan;98322.78;5035577;28;20469;-65
2023/09/23 05:08:58;;;;;;;9.15;8.25;;;;;;;24.37;nan;98314.97;5039191;28;20045;-65
2023/09/23 05:11:28;;;;;;;10.55;9.45;;;;;;;24.23;nan;98305.94;5029204;28;20048;-65
2023/09/23 05:13:57;;;;;;;11.80;9.15;;;;;;;24.04;nan;98282.34;5029201;28;20182;-65
2023/09/23 05:16:26;;;;;;;11.43;9.00;;;;;;;24.19;nan;98280.56;5018651;28;20045;-65
2023/09/23 05:18:56;;;;;;;11.23;9.15;;;;;;;24.11;nan;98279.28;5017826;28;20051;-65
2023/09/23 05:21:25;;;;;;;9.95;8.73;;;;;;;24.13;nan;98294.13;5022797;28;20049;-64
2023/09/23 05:23:56;;;;;;;10.95;8.48;;;;;;;24.12;nan;98292.50;5024532;28;20049;-65
2023/09/23 05:26:25;;;;;;;13.93;8.90;;;;;;;24.28;nan;98295.88;5013289;28;20187;-65
2023/09/23 05:28:56;;;;;;;10.75;8.60;;;;;;;24.51;nan;98351.06;5008190;28;20116;-64
2023/09/23 05:31:25;;;;;;;12.68;9.05;;;;;;;24.34;nan;98354.22;5018947;28;20064;-64
2023/09/23 05:33:55;;;;;;;11.63;10.07;;;;;;;24.31;nan;98332.34;5005261;28;20061;-64
2023/09/23 05:36:25;;;;;;;11.50;10.27;;;;;;;24.28;nan;98341.06;5004780;28;20046;-65
2023/09/23 05:38:55;;;;;;;12.55;10.13;;;;;;;24.50;nan;98361.09;5007090;28;20124;-65
2023/09/23 05:41:24;;;;;;;15.68;13.27;;;;;;;24.22;nan;98345.72;5025700;28;20053;-64
2023/09/23 05:43:54;;;;;;;17.08;15.25;;;;;;;24.13;nan;98345.53;5022415;28;20057;-64
2023/09/23 05:46:23;;;;;;;19.05;14.68;;;;;;;24.37;nan;98342.84;5025449;28;20485;-65
2023/09/23 05:48:53;;;;;;;17.67;14.90;;;;;;;24.16;nan;98342.28;5019132;28;20195;-65
2023/09/23 05:51:23;;;;;;;18.35;15.27;;;;;;;24.23;nan;98335.72;5025566;28;20054;-64
2023/09/23 05:53:52;;;;;;;18.63;15.10;;;;;;;24.29;nan;98331.88;5031660;28;20166;-63
2023/09/23 05:56:21;;;;;;;17.25;14.75;;;;;;;24.26;nan;98333.22;5019173;28;20148;-65
2023/09/23 05:58:50;;;;;;;16.42;13.30;;;;;;;24.41;nan;98332.25;5025448;28;20049;-64
2023/09/23 06:01:20;;;;;;;15.15;12.80;;;;;;;24.50;nan;98349.44;5023122;28;20049;-64
2023/09/23 06:03:50;;;;;;;14.23;11.85;;;;;;;24.56;nan;98361.84;5034178;28;20048;-64
2023/09/23 06:06:19;;;;;;;12.88;9.50;;;;;;;24.47;nan;98355.44;5037467;28;20132;-64
2023/09/23 06:08:50;;;;;;;15.40;10.38;;;;;;;24.74;nan;98360.22;5042468;28;20107;-64
2023/09/23 06:11:20;;;;;;;10.88;8.18;;;;;;;24.65;nan;98349.22;5020856;28;20045;-65
2023/09/23 06:13:49;;;;;;;10.13;8.50;;;;;;;24.79;nan;98341.97;5047481;28;20567;-65
2023/09/23 06:16:21;;;;;;;9.80;8.18;;;;;;;24.90;nan;98343.50;5042677;28;20828;-65
2023/09/23 06:18:52;;;;;;;12.63;7.70;;;;;;;25.07;nan;98352.97;5041956;28;20432;-63
2023/09/23 06:21:22;;;;;;;10.75;7.25;;;;;;;24.92;nan;98340.47;5029468;28;20187;-64
2023/09/23 06:23:52;;;;;;;9.57;7.22;;;;;;;24.92;nan;98340.47;5046986;28;20056;-63
2023/09/23 06:26:27;;;;;;;8.60;6.63;;;;;;;25.19;nan;98337.06;5034712;28;20167;-65
2023/09/23 06:28:57;;;;;;;8.95;6.10;;;;;;;25.30;nan;98333.09;5044605;28;20041;-67
2023/09/23 06:31:28;;;;;;;11.95;6.95;;;;;;;25.34;nan;98331.41;5030780;28;20658;-67
2023/09/23 06:33:57;;;;;;;5.85;5.25;;;;;;;25.35;nan;98338.44;5056781;28;20056;-68
2023/09/23 06:36:27;;;;;;;6.05;5.32;;;;;;;25.45;nan;98333.63;5041124;28;20044;-67
2023/09/23 06:38:56;;;;;;;9.38;5.72;;;;;;;25.43;nan;98326.91;5046835;28;20110;-66
2023/09/23 06:41:26;;;;;;;7.35;5.13;;;;;;;25.46;nan;98315.44;5047242;28;20189;-66
2023/09/23 06:43:55;;;;;;;6.45;4.95;;;;;;;25.58;nan;98315.78;5026696;28;20106;-67
2023/09/23 06:46:25;;;;;;;7.25;5.07;;;;;;;25.74;nan;98314.44;5046513;28;20080;-65
2023/09/23 06:48:54;;;;;;;6.45;4.68;;;;;;;25.80;nan;98309.72;5046028;28;20056;-66
2023/09/23 06:51:23;;;;;;;10.25;5.00;;;;;;;25.87;nan;98302.78;5043216;28;20053;-66
2023/09/23 06:53:53;;;;;;;9.95;5.68;;;;;;;25.94;nan;98296.94;5048848;28;20082;-65
2023/09/23 06:56:22;;;;;;;7.18;4.55;;;;;;;25.81;nan;98295.03;5037519;28;20055;-67
2023/09/23 06:58:51;;;;;;;6.80;4.65;;;;;;;26.07;nan;98292.63;5039297;28;20122;-67
2023/09/23 07:01:21;;;;;;;8.75;4.15;;;;;;;26.21;nan;98293.41;5037667;28;20057;-67
2023/09/23 07:03:51;;;;;;;8.30;4.50;;;;;;;26.38;nan;98290.88;5043358;28;20072;-67
2023/09/23 07:06:21;;;;;;;6.65;3.55;;;;;;;26.48;nan;98290.66;5040649;28;20480;-67
2023/09/23 07:08:50;;;;;;;8.68;4.70;;;;;;;26.71;nan;98286.88;5045293;28;20045;-66
2023/09/23 07:11:20;;;;;;;6.75;3.75;;;;;;;27.06;nan;98282.50;5043162;28;20061;-68
2023/09/23 07:13:50;;;;;;;6.60;3.28;;;;;;;27.09;nan;98292.75;5045160;28;20055;-68
2023/09/23 07:16:19;;;;;;;6.60;3.30;;;;;;;27.09;nan;98284.59;5045489;28;20144;-67
2023/09/23 07:18:48;;;;;;;7.70;3.15;;;;;;;27.29;nan;98286.03;5041748;28;20048;-68
2023/09/23 07:21:18;;;;;;;6.47;3.28;;;;;;;27.32;nan;98279.94;5043380;28;20055;-65
2023/09/23 07:23:47;;;;;;;5.15;3.42;;;;;;;27.42;nan;98276.16;5041886;28;20138;-65
2023/09/23 07:26:23;;;;;;;4.93;2.97;;;;;;;27.58;nan;98283.63;5041429;28;20048;-66
2023/09/23 07:28:52;;;;;;;7.28;3.42;;;;;;;27.64;nan;98284.31;5048496;28;20148;-67
2023/09/23 07:31:22;;;;;;;4.75;3.40;;;;;;;27.68;nan;98267.03;5043129;28;20118;-67
2023/09/23 07:33:51;;;;;;;4.03;3.03;;;;;;;27.50;nan;98265.34;5044375;28;20040;-67
2023/09/23 07:36:20;;;;;;;4.95;3.03;;;;;;;27.57;nan;98264.91;5044493;28;20787;-67
2023/09/23 07:38:50;;;;;;;5.55;2.97;;;;;;;27.43;nan;98259.53;5042029;28;20231;-67
2023/09/23 07:41:19;;;;;;;3.38;2.85;;;;;;;27.47;nan;98259.72;5044258;28;20360;-67
2023/09/23 07:43:49;;;;;;;3.08;2.78;;;;;;;27.61;nan;98272.13;5042207;28;20048;-67
2023/09/23 07:46:18;;;;;;;6.25;3.13;;;;;;;27.75;nan;98272.00;5041539;28;20163;-66
2023/09/23 07:48:47;;;;;;;3.20;2.78;;;;;;;27.68;nan;98272.47;5043348;28;20780;-67
2023/09/23 07:51:17;;;;;;;4.47;3.35;;;;;;;27.60;nan;98272.44;5040502;28;20559;-67
2023/09/23 07:53:46;;;;;;;5.03;3.47;;;;;;;27.52;nan;98274.03;5045766;28;20077;-67
2023/09/23 07:56:16;;;;;;;4.30;2.97;;;;;;;27.51;nan;98269.69;5043955;28;20045;-66
2023/09/23 07:58:45;;;;;;;3.33;3.03;;;;;;;27.46;nan;98271.69;5042257;28;20040;-67
2023/09/23 08:01:14;;;;;;;5.50;3.25;;;;;;;27.68;nan;98268.94;5024849;28;20057;-67
2023/09/23 08:03:43;;;;;;;3.95;3.28;;;;;;;27.73;nan;98274.25;5041289;28;20056;-67
2023/09/23 08:06:13;;;;;;;4.80;3.30;;;;;;;27.76;nan;98270.09;5027350;28;20067;-66
2023/09/23 08:08:44;;;;;;;5.53;3.08;;;;;;;27.64;nan;98276.94;5042935;28;20075;-67
2023/09/23 08:11:13;;;;;;;5.93;4.25;;;;;;;27.90;nan;98268.06;5043706;28;20041;-67
2023/09/23 08:13:43;;;;;;;6.85;4.22;;;;;;;28.03;nan;98267.13;5044772;28;20045;-67
2023/09/23 08:16:13;;;;;;;3.75;3.25;;;;;;;27.82;nan;98261.47;5035211;28;20137;-66
2023/09/23 08:18:42;;;;;;;3.70;3.10;;;;;;;27.94;nan;98256.22;5048131;28;20431;-67
2023/09/23 08:21:11;;;;;;;4.15;3.17;;;;;;;27.96;nan;98258.66;5042742;28;20144;-67
2023/09/23 08:23:41;;;;;;;4.75;3.50;;;;;;;27.99;nan;98260.72;5043082;28;20048;-67
2023/09/23 08:26:11;;;;;;;5.03;3.50;;;;;;;28.18;nan;98258.56;5033921;28;20042;-66
2023/09/23 08:28:42;;;;;;;4.70;3.55;;;;;;;28.00;nan;98252.25;5039318;28;20751;-66
2023/09/23 08:31:12;;;;;;;5.18;3.95;;;;;;;28.07;nan;98251.75;5043156;28;20453;-69
2023/09/23 08:33:43;;;;;;;7.13;4.10;;;;;;;27.90;nan;98251.72;5043642;28;20081;-67
2023/09/23 08:36:13;;;;;;;5.70;4.53;;;;;;;28.10;nan;98248.47;5035940;28;20558;-67
2023/09/23 08:38:43;;;;;;;6.60;4.82;;;;;;;27.90;nan;98243.56;5040476;28;20115;-68
2023/09/23 08:41:16;;;;;;;6.88;4.47;;;;;;;28.14;nan;98230.38;5032677;28;20060;-67
2023/09/23 08:43:47;;;;;;;7.07;4.68;;;;;;;28.11;nan;98228.25;5035541;28;20050;-68
2023/09/23 08:46:19;;;;;;;6.97;5.00;;;;;;;28.04;nan;98227.91;5028958;28;20052;-67
2023/09/23 08:48:49;;;;;;;7.13;4.68;;;;;;;27.97;nan;98233.03;5022559;28;20048;-68
2023/09/23 08:51:24;;;;;;;5.00;4.03;;;;;;;27.97;nan;98235.75;5040345;28;20634;-66
2023/09/23 08:53:55;;;;;;;6.88;3.90;;;;;;;28.02;nan;98225.50;5042186;28;20662;-67
2023/09/23 08:56:25;;;;;;;5.47;3.40;;;;;;;28.16;nan;98230.03;5044548;28;20045;-67
2023/09/23 08:58:54;;;;;;;5.63;3.10;;;;;;;28.19;nan;98224.75;5033197;28;20107;-67
2023/09/23 09:01:29;;;;;;;6.38;3.45;;;;;;;28.25;nan;98230.84;5041512;28;20048;-66
2023/09/23 09:03:58;;;;;;;5.25;3.17;;;;;;;28.16;nan;98221.84;5044846;28;20151;-66
2023/09/23 09:06:29;;;;;;;4.55;3.00;;;;;;;28.07;nan;98221.81;5032710;28;20045;-67
2023/09/23 09:08:59;;;;;;;5.68;2.83;;;;;;;28.03;nan;98218.13;5044184;28;20055;-66
2023/09/23 09:11:31;;;;;;;3.70;2.65;;;;;;;28.03;nan;98220.84;5053601;28;20059;-66
2023/09/23 09:14:00;;;;;;;5.43;2.67;;;;;;;28.14;nan;98219.47;5007071;28;20835;-66
2023/09/23 09:16:30;;;;;;;4.75;3.10;;;;;;;28.26;nan;98218.84;5033791;28;20475;-65
2023/09/23 09:18:59;;;;;;;4.85;2.83;;;;;;;28.26;nan;98221.56;5038965;28;20060;-65
2023/09/23 09:21:30;;;;;;;4.78;3.17;;;;;;;28.21;nan;98208.09;5034100;28;20051;-66
2023/09/23 09:24:00;;;;;;;5.20;3.10;;;;;;;28.22;nan;98205.06;5041574;28;20069;-65
2023/09/23 09:26:31;;;;;;;4.60;2.80;;;;;;;28.23;nan;98201.22;5031734;28;20049;-67
2023/09/23 09:29:02;;;;;;;3.42;2.95;;;;;;;28.19;nan;98194.81;5025531;28;20064;-66
2023/09/23 09:31:35;;;;;;;4.03;3.10;;;;;;;28.17;nan;98188.88;5030736;28;20057;-66
2023/09/23 09:34:08;;;;;;;4.05;2.97;;;;;;;28.22;nan;98187.91;5036440;28;20800;-66
2023/09/23 09:36:39;;;;;;;5.95;3.08;;;;;;;28.35;nan;98185.03;5037495;28;20053;-67
2023/09/23 09:39:15;;;;;;;4.63;2.95;;;;;;;28.40;nan;98176.69;5038638;28;20120;-68
2023/09/23 09:41:53;;;;;;;3.03;2.78;;;;;;;28.37;nan;98171.09;5038598;28;20059;-67
2023/09/23 09:44:25;;;;;;;3.30;3.00;;;;;;;28.37;nan;98163.69;5031288;28;20110;-63
2023/09/23 09:46:56;;;;;;;3.03;2.65;;;;;;;28.40;nan;98160.34;5031597;28;20060;-68
2023/09/23 09:49:26;;;;;;;8.05;3.28;;;;;;;28.29;nan;98152.81;5014393;28;20056;-68
2023/09/23 09:51:57;;;;;;;3.95;3.13;;;;;;;28.34;nan;98153.44;5045095;28;20066;-67
2023/09/23 09:54:27;;;;;;;3.17;2.85;;;;;;;28.33;nan;98149.13;5041119;28;20053;-65
2023/09/23 09:56:59;;;;;;;5.50;3.17;;;;;;;28.44;nan;98153.13;5033924;28;20159;-64
2023/09/23 09:59:32;;;;;;;6.65;3.55;;;;;;;28.25;nan;98149.13;5037327;28;20044;-68
2023/09/23 10:02:04;;;;;;;4.68;3.30;;;;;;;28.45;nan;98138.41;5044205;28;20048;-65
2023/09/23 10:04:34;;;;;;;7.40;3.70;;;;;;;28.33;nan;98137.41;4709794;28;10000584;-63
2023/09/23 10:07:07;;;;;;;4.60;3.42;;;;;;;28.46;nan;98141.91;5027900;28;20093;-63
2023/09/23 10:09:40;;;;;;;5.95;3.50;;;;;;;28.47;nan;98140.78;5029558;28;20052;-65
2023/09/23 10:12:19;;;;;;;6.65;4.18;;;;;;;28.47;nan;98143.50;5037682;28;20045;-65
2023/09/23 10:15:10;;;;;;;4.05;3.35;;;;;;;28.37;nan;98141.13;5045076;28;20075;-67
2023/09/23 10:17:43;;;;;;;5.15;3.33;;;;;;;28.48;nan;98137.75;5051801;28;20750;-66
2023/09/23 10:20:15;;;;;;;3.90;3.30;;;;;;;28.46;nan;98137.25;5047123;28;20063;-68
2023/09/23 10:22:52;;;;;;;5.15;3.25;;;;;;;28.46;nan;98133.72;5037703;28;20476;-66
2023/09/23 10:25:22;;;;;;;5.95;4.32;;;;;;;28.47;nan;98129.88;5040534;28;20140;-66
2023/09/23 10:27:59;;;;;;;4.80;3.58;;;;;;;28.51;nan;98131.63;4683162;28;10000091;-67
2023/09/23 10:30:29;;;;;;;4.28;3.53;;;;;;;28.42;nan;98122.66;5027023;28;20045;-67
2023/09/23 10:32:58;;;;;;;4.57;3.47;;;;;;;28.44;nan;98119.63;5048496;28;20084;-68
2023/09/23 10:35:28;;;;;;;6.57;3.88;;;;;;;28.44;nan;98116.91;5039460;28;20049;-68
2023/09/23 10:37:57;;;;;;;4.28;3.45;;;;;;;28.48;nan;98112.41;5038062;28;20090;-69
2023/09/23 10:40:26;;;;;;;6.88;3.58;;;;;;;28.48;nan;98112.41;5039824;28;20053;-67
2023/09/23 10:43:04;;;;;;;5.55;3.78;;;;;;;28.44;nan;98104.09;5045749;28;20731;-67
2023/09/23 10:45:34;;;;;;;3.90;3.60;;;;;;;28.47;nan;98100.72;5044175;28;20500;-66
2023/09/23 10:48:05;;;;;;;5.30;3.53;;;;;;;28.42;nan;98100.06;5044211;28;20391;-67
2023/09/23 10:50:35;;;;;;;3.80;3.20;;;;;;;28.52;nan;98105.19;5026607;28;20056;-67
2023/09/23 10:53:04;;;;;;;3.50;3.20;;;;;;;28.54;nan;98109.22;5047289;28;20052;-68
2023/09/23 10:55:34;;;;;;;3.97;3.58;;;;;;;28.54;nan;98109.22;5038001;28;20052;-67
2023/09/23 10:58:07;;;;;;;6.43;3.85;;;;;;;28.49;nan;98106.66;5039250;28;20364;-68
2023/09/23 11:00:38;;;;;;;5.05;3.85;;;;;;;28.43;nan;98090.78;5039465;28;20199;-68
2023/09/23 11:03:19;;;;;;;8.52;3.80;;;;;;;28.41;nan;98096.53;5041116;28;20748;-69
2023/09/23 11:05:49;;;;;;;6.53;4.00;;;;;;;28.42;nan;98089.97;5038290;28;20129;-68
2023/09/23 11:08:18;;;;;;;5.32;3.65;;;;;;;28.39;nan;98085.19;5038355;28;20053;-68
2023/09/23 11:10:49;;;;;;;4.68;3.53;;;;;;;28.46;nan;98071.84;5034950;28;20045;-66
2023/09/23 11:13:18;;;;;;;4.13;3.72;;;;;;;28.43;nan;98069.00;5030308;28;20080;-68
2023/09/23 11:15:48;;;;;;;7.38;3.60;;;;;;;28.50;nan;98069.31;5040220;28;20053;-67
2023/09/23 11:18:17;;;;;;;5.43;3.60;;;;;;;28.38;nan;98071.88;5035579;28;20045;-66
2023/09/23 11:20:48;;;;;;;4.78;4.05;;;;;;;28.40;nan;98070.44;5033638;28;20050;-67
2023/09/23 11:23:18;;;;;;;10.20;5.13;;;;;;;28.29;nan;98063.72;5038403;28;20052;-66
2023/09/23 11:25:47;;;;;;;4.80;4.15;;;;;;;28.39;nan;98066.13;5037667;28;20147;-67
2023/09/23 11:28:17;;;;;;;4.70;3.70;;;;;;;28.40;nan;98069.66;5046077;28;20051;-67
2023/09/23 11:30:50;;;;;;;5.82;4.40;;;;;;;28.35;nan;98067.88;5046289;28;20161;-67
2023/09/23 11:33:21;;;;;;;6.22;3.97;;;;;;;28.35;nan;98059.72;5042913;28;20631;-67
2023/09/23 11:35:51;;;;;;;6.28;4.78;;;;;;;28.37;nan;98057.44;5047703;28;20041;-67
2023/09/23 11:38:21;;;;;;;8.50;4.35;;;;;;;28.29;nan;98052.84;5038056;28;20349;-67
2023/09/23 11:40:50;;;;;;;5.32;4.70;;;;;;;28.35;nan;98048.81;5038976;28;20141;-67
2023/09/23 11:43:19;;;;;;;5.53;4.07;;;;;;;28.30;nan;98061.81;5048242;28;20113;-67
2023/09/23 11:45:49;;;;;;;5.25;4.15;;;;;;;28.29;nan;98052.03;5046216;28;20056;-67
2023/09/23 11:48:18;;;;;;;5.63;4.10;;;;;;;28.28;nan;98050.44;5046663;28;20473;-68
2023/09/23 11:50:48;;;;;;;4.50;3.92;;;;;;;28.25;nan;98054.59;5043959;28;20052;-67
2023/09/23 11:53:18;;;;;;;8.40;4.30;;;;;;;28.37;nan;98056.69;5025753;28;20081;-68
2023/09/23 11:55:49;;;;;;;5.80;4.15;;;;;;;28.26;nan;98058.13;5035220;28;20051;-66
2023/09/23 11:58:19;;;;;;;5.20;4.70;;;;;;;28.28;nan;98055.91;5020326;28;20091;-66
2023/09/23 12:00:49;;;;;;;6.60;4.38;;;;;;;28.22;nan;98054.47;5038619;28;20140;-66
2023/09/23 12:03:21;;;;;;;7.63;4.90;;;;;;;28.16;nan;98056.53;5044437;28;20053;-67
2023/09/23 12:05:50;;;;;;;5.57;4.53;;;;;;;28.05;nan;98058.78;5041964;28;20055;-66